Time;durP1;ratioP1;P1;durP2;ratioP2;P2;SDS_P1;SDS_P2;PMS_P1;PMS_P2;Temp;Humidity;BMP_temperature;BMP_pressure;BME280_temperature;BME280_humidity;BME280_pressure;Samples;Min_cycle;Max_cycle;Signal;HPM_P1;HPM_P2
2022/06/12 00:01:20;;;;;;;17.92;5.18;;;;;;;;;;5006246;28;20026;-77
2022/06/12 00:03:49;;;;;;;15.43;5.63;;;;;;;;;;5011572;28;20022;-76
2022/06/12 00:06:17;;;;;;;16.63;5.97;;;;;;;;;;5001517;28;20026;-75
2022/06/12 00:08:43;;;;;;;18.35;5.03;;;;;;;;;;5008264;28;20026;-76
2022/06/12 00:11:10;;;;;;;13.32;5.35;;;;;;;;;;5005720;28;20026;-75
2022/06/12 00:13:42;;;;;;;21.65;6.00;;;;;;;;;;5003371;28;20030;-76
2022/06/12 00:16:09;;;;;;;11.00;6.10;;;;;;;;;;5010681;28;20022;-76
2022/06/12 00:18:35;;;;;;;20.35;5.70;;;;;;;;;;5004629;28;20022;-75
2022/06/12 00:21:10;;;;;;;16.63;5.32;;;;;;;;;;5021936;28;20401;-76
2022/06/12 00:23:38;;;;;;;19.40;5.32;;;;;;;;;;5010700;28;20197;-76
2022/06/12 00:26:05;;;;;;;16.63;6.00;;;;;;;;;;5008079;28;20045;-75
2022/06/12 00:28:31;;;;;;;13.35;5.72;;;;;;;;;;5004676;28;20029;-75
2022/06/12 00:30:57;;;;;;;15.05;5.35;;;;;;;;;;5006324;28;20025;-76
2022/06/12 00:33:23;;;;;;;12.85;5.47;;;;;;;;;;5011107;28;20032;-76
2022/06/12 00:35:49;;;;;;;18.92;5.07;;;;;;;;;;5005536;28;20084;-76
2022/06/12 00:38:15;;;;;;;18.13;5.03;;;;;;;;;;5006758;28;20556;-76
2022/06/12 00:40:41;;;;;;;12.95;6.00;;;;;;;;;;5007009;28;20046;-76
2022/06/12 00:43:07;;;;;;;15.93;5.95;;;;;;;;;;5006878;28;20096;-75
2022/06/12 00:45:47;;;;;;;14.23;5.15;;;;;;;;;;5011452;28;20028;-76
2022/06/12 00:48:24;;;;;;;18.25;6.63;;;;;;;;;;5011921;28;20105;-76
2022/06/12 00:50:59;;;;;;;17.77;6.68;;;;;;;;;;5000747;28;20030;-77
2022/06/12 00:53:37;;;;;;;15.23;5.03;;;;;;;;;;5009452;28;20036;-76
2022/06/12 00:56:15;;;;;;;17.70;4.88;;;;;;;;;;5007277;28;20042;-75
2022/06/12 00:58:44;;;;;;;16.45;5.38;;;;;;;;;;5006874;28;20025;-76
2022/06/12 01:01:12;;;;;;;17.25;5.00;;;;;;;;;;5007871;28;20085;-76
2022/06/12 01:06:33;;;;;;;12.15;4.88;;;;;;;;;;5010330;28;20022;-76
2022/06/12 01:06:33;;;;;;;14.80;6.05;;;;;;;;;;5002787;28;20563;-76
2022/06/12 01:09:00;;;;;;;23.00;5.88;;;;;;;;;;5008232;28;20026;-76
2022/06/12 01:11:27;;;;;;;18.20;6.30;;;;;;;;;;5016268;28;20041;-76
2022/06/12 01:13:53;;;;;;;14.50;5.40;;;;;;;;;;5007559;28;20026;-75
2022/06/12 01:16:20;;;;;;;16.15;6.00;;;;;;;;;;5004466;28;20105;-76
2022/06/12 01:18:48;;;;;;;16.35;4.82;;;;;;;;;;5000492;28;20551;-76
2022/06/12 01:21:34;;;;;;;14.15;4.90;;;;;;;;;;5014062;28;20054;-75
2022/06/12 01:24:12;;;;;;;12.43;4.75;;;;;;;;;;5010690;28;20498;-75
2022/06/12 01:26:38;;;;;;;16.10;6.45;;;;;;;;;;5010582;28;20042;-76
2022/06/12 01:29:05;;;;;;;17.95;6.10;;;;;;;;;;5013633;28;20032;-76
2022/06/12 01:31:40;;;;;;;12.88;5.10;;;;;;;;;;5011953;28;20571;-76
2022/06/12 01:34:25;;;;;;;8.98;4.93;;;;;;;;;;5030722;28;20570;-74
2022/06/12 01:36:57;;;;;;;15.05;5.50;;;;;;;;;;5012232;28;20029;-76
2022/06/12 01:39:36;;;;;;;22.63;6.32;;;;;;;;;;5012315;28;20706;-76
2022/06/12 01:42:05;;;;;;;13.75;4.57;;;;;;;;;;5007242;28;20109;-76
2022/06/12 01:44:44;;;;;;;12.35;6.38;;;;;;;;;;5014890;28;20080;-76
2022/06/12 01:47:23;;;;;;;17.50;4.93;;;;;;;;;;5013825;28;20037;-76
2022/06/12 01:49:49;;;;;;;23.70;5.75;;;;;;;;;;5014322;28;20032;-76
2022/06/12 01:52:22;;;;;;;17.17;5.65;;;;;;;;;;5006158;28;20488;-76
2022/06/12 01:55:14;;;;;;;15.43;5.80;;;;;;;;;;5012368;28;20044;-76
2022/06/12 01:58:03;;;;;;;17.63;5.50;;;;;;;;;;5009916;28;20514;-76
2022/06/12 02:00:30;;;;;;;13.90;5.80;;;;;;;;;;4975913;28;20491;-75
2022/06/12 02:02:56;;;;;;;17.13;5.07;;;;;;;;;;5011474;28;20064;-76
2022/06/12 02:05:54;;;;;;;19.67;6.07;;;;;;;;;;5023125;28;20072;-75
2022/06/12 02:08:27;;;;;;;14.77;4.72;;;;;;;;;;5020095;28;20057;-75
2022/06/12 02:13:11;;;;;;;15.82;4.88;;;;;;;;;;5010860;28;20028;-76
2022/06/12 02:13:47;;;;;;;17.50;5.85;;;;;;;;;;5007196;28;20037;-76
2022/06/12 02:16:18;;;;;;;15.20;5.07;;;;;;;;;;5006451;28;20017;-74
2022/06/12 02:18:50;;;;;;;16.95;5.55;;;;;;;;;;5012699;28;20014;-75
2022/06/12 02:21:25;;;;;;;16.50;6.47;;;;;;;;;;5007430;28;20092;-74
2022/06/12 02:24:01;;;;;;;13.52;4.65;;;;;;;;;;5010889;28;20400;-76
2022/06/12 02:26:32;;;;;;;13.60;5.57;;;;;;;;;;5008994;28;20145;-76
2022/06/12 02:29:00;;;;;;;14.57;4.53;;;;;;;;;;5011258;28;20025;-75
2022/06/12 02:31:32;;;;;;;18.27;4.68;;;;;;;;;;5010672;28;20033;-75
2022/06/12 02:34:00;;;;;;;16.55;5.13;;;;;;;;;;5006991;28;20458;-77
2022/06/12 02:36:28;;;;;;;21.55;5.50;;;;;;;;;;5018369;28;20029;-75
2022/06/12 02:39:00;;;;;;;14.93;5.43;;;;;;;;;;5004849;28;20487;-76
2022/06/12 02:41:44;;;;;;;20.80;4.75;;;;;;;;;;5002473;28;20030;-76
2022/06/12 02:44:23;;;;;;;18.35;6.30;;;;;;;;;;5009038;28;20018;-77
2022/06/12 02:46:54;;;;;;;13.10;5.22;;;;;;;;;;5007179;28;20084;-75
2022/06/12 02:49:21;;;;;;;15.88;5.20;;;;;;;;;;5010350;28;20395;-76
2022/06/12 02:51:47;;;;;;;14.57;6.28;;;;;;;;;;5010617;28;20038;-75
2022/06/12 02:54:16;;;;;;;21.20;6.40;;;;;;;;;;5009549;28;20109;-75
2022/06/12 02:56:53;;;;;;;16.60;5.80;;;;;;;;;;5007015;28;20674;-76
2022/06/12 02:59:23;;;;;;;20.42;5.90;;;;;;;;;;5010368;28;20026;-75
2022/06/12 03:02:02;;;;;;;14.80;4.82;;;;;;;;;;5010507;28;20015;-75
2022/06/12 03:04:32;;;;;;;21.40;6.57;;;;;;;;;;5013478;28;20175;-76
2022/06/12 03:06:58;;;;;;;16.63;4.63;;;;;;;;;;5009402;28;20049;-76
2022/06/12 03:09:24;;;;;;;13.05;4.72;;;;;;;;;;5007880;28;20026;-75
2022/06/12 03:11:50;;;;;;;14.45;4.75;;;;;;;;;;5006751;28;20462;-76
2022/06/12 03:14:19;;;;;;;18.85;5.70;;;;;;;;;;5005519;28;20524;-74
2022/06/12 03:16:46;;;;;;;18.50;7.50;;;;;;;;;;5009279;28;20128;-75
2022/06/12 03:19:18;;;;;;;23.83;5.53;;;;;;;;;;5007021;28;20037;-74
2022/06/12 03:21:51;;;;;;;17.55;5.50;;;;;;;;;;5013859;28;20029;-77
2022/06/12 03:24:36;;;;;;;24.60;5.72;;;;;;;;;;5002155;28;20023;-75
2022/06/12 03:27:21;;;;;;;16.13;5.82;;;;;;;;;;5006105;28;20049;-76
2022/06/12 03:29:59;;;;;;;18.48;6.65;;;;;;;;;;5005738;28;20382;-75
2022/06/12 03:32:29;;;;;;;27.83;6.78;;;;;;;;;;5002621;28;20539;-75
2022/06/12 03:35:01;;;;;;;23.02;5.85;;;;;;;;;;5001386;28;20050;-76
2022/06/12 03:37:27;;;;;;;19.25;5.97;;;;;;;;;;5005836;28;20042;-76
2022/06/12 03:39:58;;;;;;;17.83;5.82;;;;;;;;;;5011223;28;20037;-76
2022/06/12 03:42:29;;;;;;;18.10;5.13;;;;;;;;;;5006385;28;20541;-75
2022/06/12 03:45:07;;;;;;;19.23;5.43;;;;;;;;;;5010167;28;20137;-76
2022/06/12 03:47:48;;;;;;;21.17;5.15;;;;;;;;;;5010174;28;20072;-76
2022/06/12 03:50:22;;;;;;;15.93;5.55;;;;;;;;;;5010522;28;20526;-75
2022/06/12 03:52:57;;;;;;;20.38;6.53;;;;;;;;;;5006307;28;20022;-77
2022/06/12 03:57:50;;;;;;;18.55;5.15;;;;;;;;;;5011417;28;20038;-76
2022/06/12 03:58:10;;;;;;;14.57;6.45;;;;;;;;;;5010565;28;20073;-75
2022/06/12 04:00:42;;;;;;;19.70;5.03;;;;;;;;;;5010197;28;20525;-75
2022/06/12 04:03:17;;;;;;;17.35;5.30;;;;;;;;;;5002813;28;20033;-76
2022/06/12 04:05:45;;;;;;;18.75;6.65;;;;;;;;;;5010048;28;20022;-76
2022/06/12 04:08:16;;;;;;;16.92;5.43;;;;;;;;;;5005736;28;20109;-76
2022/06/12 04:10:44;;;;;;;18.92;6.03;;;;;;;;;;5010573;28;20034;-75
2022/06/12 04:13:12;;;;;;;18.50;6.82;;;;;;;;;;5006599;28;20037;-75
2022/06/12 04:15:44;;;;;;;13.77;4.82;;;;;;;;;;5004846;28;20061;-76
2022/06/12 04:18:10;;;;;;;13.13;6.25;;;;;;;;;;5004021;28;20575;-75
2022/06/12 04:20:46;;;;;;;16.52;5.88;;;;;;;;;;5005041;28;20080;-75
2022/06/12 04:23:33;;;;;;;17.05;5.75;;;;;;;;;;5007780;28;20022;-76
2022/06/12 04:26:13;;;;;;;15.63;5.60;;;;;;;;;;5008836;28;20037;-75
2022/06/12 04:28:41;;;;;;;23.08;7.43;;;;;;;;;;5002304;28;20065;-76
2022/06/12 04:31:16;;;;;;;20.40;5.30;;;;;;;;;;5011770;28;20026;-75
2022/06/12 04:33:42;;;;;;;12.45;5.55;;;;;;;;;;5003189;28;20049;-76
2022/06/12 04:36:12;;;;;;;13.75;5.90;;;;;;;;;;5002754;28;20026;-77
2022/06/12 04:38:38;;;;;;;24.13;6.15;;;;;;;;;;5008445;28;20029;-75
2022/06/12 04:41:04;;;;;;;19.80;4.93;;;;;;;;;;5004035;28;20080;-75
2022/06/12 04:43:31;;;;;;;15.27;4.90;;;;;;;;;;5009905;28;20026;-75
2022/06/12 04:45:57;;;;;;;22.13;5.90;;;;;;;;;;5007740;28;20036;-76
2022/06/12 04:48:36;;;;;;;13.50;6.30;;;;;;;;;;5008411;28;20112;-76
2022/06/12 04:51:04;;;;;;;15.13;4.85;;;;;;;;;;5010439;28;20018;-75
2022/06/12 04:53:30;;;;;;;24.10;5.45;;;;;;;;;;5010117;28;20018;-76
2022/06/12 04:55:56;;;;;;;17.73;5.78;;;;;;;;;;5008538;28;20033;-75
2022/06/12 04:58:22;;;;;;;16.63;5.32;;;;;;;;;;5006840;28;20093;-76
2022/06/12 05:00:49;;;;;;;20.15;5.95;;;;;;;;;;5009322;28;20030;-75
2022/06/12 05:03:15;;;;;;;17.27;7.30;;;;;;;;;;5003683;28;20026;-75
2022/06/12 05:05:42;;;;;;;20.38;5.72;;;;;;;;;;5009938;28;20033;-75
2022/06/12 05:08:09;;;;;;;18.02;5.57;;;;;;;;;;5009203;28;20025;-76
2022/06/12 05:10:35;;;;;;;22.10;5.80;;;;;;;;;;5006424;28;20022;-75
2022/06/12 05:13:01;;;;;;;22.92;6.63;;;;;;;;;;5003935;28;20066;-76
2022/06/12 05:15:28;;;;;;;16.33;5.38;;;;;;;;;;5009833;28;20026;-75
2022/06/12 05:17:54;;;;;;;23.10;5.55;;;;;;;;;;5006046;28;20471;-75
2022/06/12 05:20:22;;;;;;;16.35;4.85;;;;;;;;;;5006174;28;20134;-76
2022/06/12 05:22:48;;;;;;;13.88;4.25;;;;;;;;;;5004349;28;20026;-76
2022/06/12 05:25:14;;;;;;;15.00;5.60;;;;;;;;;;5006053;28;20096;-75
2022/06/12 05:27:41;;;;;;;14.70;5.90;;;;;;;;;;5005588;28;20057;-75
2022/06/12 05:30:11;;;;;;;13.55;5.28;;;;;;;;;;5011045;28;20096;-76
2022/06/12 05:32:37;;;;;;;15.43;5.10;;;;;;;;;;5013898;28;20021;-76
2022/06/12 05:35:03;;;;;;;15.57;6.13;;;;;;;;;;5015176;28;20560;-76
2022/06/12 05:37:29;;;;;;;18.05;6.20;;;;;;;;;;5012129;28;20029;-75
2022/06/12 05:39:55;;;;;;;17.20;4.88;;;;;;;;;;5012808;28;20045;-75
2022/06/12 05:42:22;;;;;;;17.45;5.35;;;;;;;;;;5007008;28;20513;-76
2022/06/12 05:44:48;;;;;;;12.55;5.13;;;;;;;;;;5008529;28;20033;-75
2022/06/12 05:47:14;;;;;;;17.42;4.93;;;;;;;;;;5004603;28;20022;-76
2022/06/12 05:49:40;;;;;;;15.77;4.78;;;;;;;;;;5006382;28;20547;-76
2022/06/12 05:52:07;;;;;;;16.20;5.13;;;;;;;;;;5012248;28;20105;-76
2022/06/12 05:54:33;;;;;;;17.25;5.10;;;;;;;;;;5010288;28;20065;-76
2022/06/12 05:56:59;;;;;;;21.50;6.53;;;;;;;;;;5009298;28;20034;-75
2022/06/12 05:59:26;;;;;;;12.55;4.40;;;;;;;;;;5006897;28;20392;-75
2022/06/12 06:01:52;;;;;;;17.70;4.78;;;;;;;;;;5006816;28;20033;-76
2022/06/12 06:04:18;;;;;;;15.50;4.90;;;;;;;;;;5007458;28;20579;-75
2022/06/12 06:06:47;;;;;;;16.88;4.43;;;;;;;;;;5010038;28;20026;-75
2022/06/12 06:09:13;;;;;;;14.25;5.20;;;;;;;;;;5010214;28;20022;-75
2022/06/12 06:11:43;;;;;;;13.75;5.28;;;;;;;;;;5013516;28;20094;-77
2022/06/12 06:14:09;;;;;;;13.23;5.50;;;;;;;;;;5011346;28;20026;-75
2022/06/12 06:16:36;;;;;;;12.63;4.55;;;;;;;;;;5011998;28;20026;-76
2022/06/12 06:19:03;;;;;;;17.50;4.82;;;;;;;;;;5010994;28;20026;-75
2022/06/12 06:21:29;;;;;;;11.35;4.93;;;;;;;;;;5011878;28;20390;-76
2022/06/12 06:23:55;;;;;;;9.68;4.25;;;;;;;;;;5008470;28;20029;-75
2022/06/12 06:26:22;;;;;;;17.17;5.43;;;;;;;;;;5010228;28;20068;-77
2022/06/12 06:28:56;;;;;;;10.98;4.53;;;;;;;;;;5009136;28;20279;-76
2022/06/12 06:31:23;;;;;;;14.45;4.75;;;;;;;;;;5010270;28;20030;-76
2022/06/12 06:33:49;;;;;;;14.15;6.05;;;;;;;;;;5010344;28;20025;-78
2022/06/12 06:36:15;;;;;;;11.95;4.88;;;;;;;;;;5007997;28;20022;-76
2022/06/12 06:38:42;;;;;;;15.98;4.15;;;;;;;;;;5005972;28;20022;-77
2022/06/12 06:41:08;;;;;;;12.45;4.90;;;;;;;;;;5007371;28;20030;-76
2022/06/12 06:46:13;;;;;;;17.80;5.32;;;;;;;;;;5007161;28;20026;-77
2022/06/12 06:46:21;;;;;;;17.95;5.57;;;;;;;;;;5004093;28;20433;-76
2022/06/12 06:48:47;;;;;;;13.23;4.80;;;;;;;;;;5009184;28;20060;-76
2022/06/12 06:51:14;;;;;;;16.13;4.35;;;;;;;;;;5010605;28;20029;-75
2022/06/12 06:53:40;;;;;;;14.20;4.35;;;;;;;;;;5011510;28;20022;-76
2022/06/12 06:56:06;;;;;;;13.02;4.40;;;;;;;;;;5010418;28;20014;-76
2022/06/12 06:58:32;;;;;;;13.55;5.78;;;;;;;;;;5010898;28;20426;-75
2022/06/12 07:00:59;;;;;;;11.70;4.93;;;;;;;;;;5010076;28;20550;-73
2022/06/12 07:03:25;;;;;;;8.98;4.00;;;;;;;;;;5008845;28;20034;-76
2022/06/12 07:05:52;;;;;;;15.73;5.18;;;;;;;;;;5009159;28;20391;-75
2022/06/12 07:08:18;;;;;;;12.55;4.78;;;;;;;;;;5008263;28;20395;-76
2022/06/12 07:10:44;;;;;;;18.60;6.32;;;;;;;;;;5010546;28;20390;-76
2022/06/12 07:13:12;;;;;;;10.68;5.28;;;;;;;;;;5002570;28;20026;-76
2022/06/12 07:15:38;;;;;;;16.23;4.28;;;;;;;;;;5015506;28;20065;-76
2022/06/12 07:18:05;;;;;;;12.25;5.18;;;;;;;;;;5007985;28;20644;-76
2022/06/12 07:20:35;;;;;;;11.63;3.95;;;;;;;;;;5008034;28;20121;-76
2022/06/12 07:23:03;;;;;;;18.83;6.50;;;;;;;;;;5009632;28;20064;-76
2022/06/12 07:25:30;;;;;;;16.27;4.82;;;;;;;;;;5013531;28;20048;-77
2022/06/12 07:27:56;;;;;;;16.30;5.10;;;;;;;;;;5005237;28;20025;-76
2022/06/12 07:30:22;;;;;;;13.10;4.43;;;;;;;;;;5006022;28;20438;-75
2022/06/12 07:32:49;;;;;;;11.07;4.15;;;;;;;;;;5009041;28;20030;-75
2022/06/12 07:35:16;;;;;;;12.77;5.10;;;;;;;;;;5004886;28;20030;-76
2022/06/12 07:37:42;;;;;;;14.50;3.88;;;;;;;;;;5010970;28;20033;-76
2022/06/12 07:40:12;;;;;;;12.20;4.55;;;;;;;;;;5009651;28;20052;-75
2022/06/12 07:42:38;;;;;;;13.25;4.30;;;;;;;;;;5009041;28;20088;-75
2022/06/12 07:45:04;;;;;;;12.90;4.13;;;;;;;;;;5006628;28;20480;-75
2022/06/12 07:47:32;;;;;;;10.48;4.30;;;;;;;;;;5006643;28;20037;-76
2022/06/12 07:49:58;;;;;;;15.10;4.40;;;;;;;;;;5013147;28;20013;-76
2022/06/12 07:52:26;;;;;;;12.98;4.75;;;;;;;;;;5008863;28;20038;-75
2022/06/12 07:54:52;;;;;;;13.95;4.63;;;;;;;;;;5007171;28;20030;-76
2022/06/12 07:57:19;;;;;;;16.85;5.38;;;;;;;;;;5009648;28;20029;-76
2022/06/12 07:59:45;;;;;;;13.40;5.80;;;;;;;;;;5004383;28;20025;-76
2022/06/12 08:02:11;;;;;;;11.45;4.70;;;;;;;;;;5005973;28;20122;-75
2022/06/12 08:04:38;;;;;;;18.13;4.32;;;;;;;;;;5006708;28;20029;-76
2022/06/12 08:07:04;;;;;;;10.98;4.05;;;;;;;;;;5004659;28;20547;-75
2022/06/12 08:09:30;;;;;;;12.07;4.78;;;;;;;;;;5007740;28;20407;-76
2022/06/12 08:11:56;;;;;;;11.90;4.10;;;;;;;;;;5004741;28;20140;-76
2022/06/12 08:14:23;;;;;;;14.23;4.82;;;;;;;;;;5006604;28;20072;-76
2022/06/12 08:16:50;;;;;;;10.40;4.07;;;;;;;;;;5010656;28;20029;-75
2022/06/12 08:22:03;;;;;;;14.00;4.25;;;;;;;;;;5005663;28;20079;-77
2022/06/12 08:24:30;;;;;;;8.98;3.92;;;;;;;;;;5005738;28;20030;-76
2022/06/12 08:26:59;;;;;;;8.75;2.97;;;;;;;;;;5009763;28;20073;-76
2022/06/12 08:29:26;;;;;;;8.27;3.78;;;;;;;;;;5007718;28;20034;-75
2022/06/12 08:31:54;;;;;;;8.93;4.20;;;;;;;;;;5011116;28;20749;-76
2022/06/12 08:34:22;;;;;;;8.60;3.45;;;;;;;;;;5009575;28;20061;-75
2022/06/12 08:36:50;;;;;;;12.02;3.53;;;;;;;;;;5004812;28;20030;-76
2022/06/12 08:39:16;;;;;;;10.00;3.50;;;;;;;;;;5006053;28;20468;-76
2022/06/12 08:41:56;;;;;;;9.13;3.88;;;;;;;;;;5003193;28;20005;-76
2022/06/12 08:44:34;;;;;;;10.32;4.13;;;;;;;;;;5009696;28;20080;-76
2022/06/12 08:47:14;;;;;;;7.55;3.10;;;;;;;;;;5009062;28;20095;-75
2022/06/12 08:50:10;;;;;;;7.25;3.20;;;;;;;;;;5010815;28;20034;-76
2022/06/12 08:52:45;;;;;;;7.25;3.13;;;;;;;;;;5014857;28;20500;-76
2022/06/12 08:55:12;;;;;;;;;;;;;;;;;;5006711;28;20480;-76
2022/06/12 08:57:58;;;;;;;13.77;3.97;;;;;;;;;;5006910;28;19968;-76
2022/06/12 09:00:32;;;;;;;9.23;3.42;;;;;;;;;;5006457;28;20026;-76
2022/06/12 09:02:59;;;;;;;9.82;3.88;;;;;;;;;;5010019;28;20486;-76
2022/06/12 09:05:29;;;;;;;8.57;2.95;;;;;;;;;;5010708;28;20062;-75
2022/06/12 09:08:25;;;;;;;7.20;3.58;;;;;;;;;;5010672;28;20045;-75
2022/06/12 09:11:02;;;;;;;9.07;3.85;;;;;;;;;;4935067;28;20498;-76
2022/06/12 09:13:28;;;;;;;11.55;3.30;;;;;;;;;;5003613;28;20037;-75
2022/06/12 09:16:04;;;;;;;6.97;3.00;;;;;;;;;;5006077;28;20101;-76
2022/06/12 09:18:53;;;;;;;9.55;2.92;;;;;;;;;;5010023;28;20559;-76
2022/06/12 09:21:29;;;;;;;5.63;2.70;;;;;;;;;;5000790;28;20042;-75
2022/06/12 09:23:58;;;;;;;6.50;3.15;;;;;;;;;;5006565;28;20355;-75
2022/06/12 09:26:33;;;;;;;14.98;3.25;;;;;;;;;;5006428;28;20399;-76
2022/06/12 09:28:59;;;;;;;;;;;;;;;;;;5004990;28;20430;-76
2022/06/12 09:31:28;;;;;;;7.82;3.47;;;;;;;;;;5008736;28;19910;-75
2022/06/12 09:34:10;;;;;;;5.85;2.95;;;;;;;;;;5007381;28;20022;-76
2022/06/12 09:36:45;;;;;;;11.40;3.08;;;;;;;;;;5008525;28;20037;-77
2022/06/12 09:39:35;;;;;;;8.55;2.90;;;;;;;;;;5008997;28;20041;-75
2022/06/12 09:42:12;;;;;;;5.68;3.08;;;;;;;;;;5001968;28;20304;-76
2022/06/12 09:44:45;;;;;;;7.55;2.75;;;;;;;;;;5010029;28;20060;-76
2022/06/12 09:47:13;;;;;;;5.85;3.00;;;;;;;;;;5010179;28;20030;-76
2022/06/12 09:49:46;;;;;;;4.30;2.30;;;;;;;;;;5012921;28;20080;-75
2022/06/12 09:52:18;;;;;;;3.08;2.28;;;;;;;;;;5008135;28;20045;-76
2022/06/12 09:54:51;;;;;;;8.07;2.78;;;;;;;;;;5013922;28;20026;-76
2022/06/12 09:57:38;;;;;;;4.45;2.50;;;;;;;;;;5008656;28;20029;-75
2022/06/12 10:00:05;;;;;;;8.27;3.35;;;;;;;;;;5014686;28;20028;-76
2022/06/12 10:02:34;;;;;;;7.32;3.85;;;;;;;;;;5010331;28;20077;-76
2022/06/12 10:05:30;;;;;;;9.05;3.63;;;;;;;;;;5011172;28;20411;-76
2022/06/12 10:08:17;;;;;;;5.38;2.90;;;;;;;;;;5000617;28;20652;-74
2022/06/12 10:10:43;;;;;;;7.93;2.83;;;;;;;;;;5004090;28;20036;-77
2022/06/12 10:13:12;;;;;;;7.32;3.28;;;;;;;;;;5007360;28;20030;-76
2022/06/12 10:15:42;;;;;;;6.43;2.90;;;;;;;;;;5012110;28;20123;-76
2022/06/12 10:18:16;;;;;;;4.75;2.65;;;;;;;;;;5011393;28;20030;-76
2022/06/12 10:20:45;;;;;;;6.10;2.72;;;;;;;;;;5015934;28;20030;-76
2022/06/12 10:23:11;;;;;;;3.55;2.80;;;;;;;;;;5016299;28;20040;-75
2022/06/12 10:25:40;;;;;;;8.23;2.85;;;;;;;;;;5014229;28;20053;-76
2022/06/12 10:28:19;;;;;;;9.35;3.13;;;;;;;;;;5013611;28;20026;-76
2022/06/12 10:31:04;;;;;;;7.97;3.72;;;;;;;;;;5012649;28;20176;-77
2022/06/12 10:33:35;;;;;;;;;;;;;;;;;;5014367;28;20391;-76
2022/06/12 10:36:02;;;;;;;7.68;2.63;;;;;;;;;;5014335;28;20158;-76
2022/06/12 10:38:33;;;;;;;6.38;2.80;;;;;;;;;;5018809;28;20029;-76
2022/06/12 10:41:01;;;;;;;7.93;3.22;;;;;;;;;;5011670;28;20443;-76
2022/06/12 10:43:31;;;;;;;6.65;3.22;;;;;;;;;;5013465;28;20026;-77
2022/06/12 10:46:15;;;;;;;7.78;2.85;;;;;;;;;;5015149;28;20029;-76
2022/06/12 10:48:42;;;;;;;7.57;2.58;;;;;;;;;;5011693;28;20025;-76
2022/06/12 10:51:13;;;;;;;8.93;4.05;;;;;;;;;;5016041;28;20033;-76
2022/06/12 10:53:40;;;;;;;10.63;3.63;;;;;;;;;;5015391;28;20041;-76
2022/06/12 10:56:28;;;;;;;6.18;3.08;;;;;;;;;;5010786;28;20025;-76
2022/06/12 10:59:13;;;;;;;5.82;2.53;;;;;;;;;;5006772;28;20030;-76
2022/06/12 11:01:45;;;;;;;6.25;2.47;;;;;;;;;;5012131;28;20050;-75
2022/06/12 11:04:14;;;;;;;6.47;2.60;;;;;;;;;;5011429;28;20515;-76
2022/06/12 11:06:57;;;;;;;6.45;3.17;;;;;;;;;;5011903;28;20503;-76
2022/06/12 11:09:41;;;;;;;5.65;2.78;;;;;;;;;;5016706;28;20038;-76
2022/06/12 11:12:22;;;;;;;5.45;2.30;;;;;;;;;;5007847;28;20085;-77
2022/06/12 11:14:51;;;;;;;4.28;2.15;;;;;;;;;;5000065;28;20034;-77
2022/06/12 11:17:26;;;;;;;4.40;2.10;;;;;;;;;;5013231;28;20113;-77
2022/06/12 11:20:11;;;;;;;4.65;2.05;;;;;;;;;;5010585;28;20542;-76
2022/06/12 11:22:40;;;;;;;4.57;1.90;;;;;;;;;;5010780;28;20026;-77
2022/06/12 11:25:06;;;;;;;3.20;2.00;;;;;;;;;;5012036;28;20042;-78
2022/06/12 11:27:51;;;;;;;3.58;2.30;;;;;;;;;;5010995;28;20033;-79
2022/06/12 11:30:39;;;;;;;5.55;3.13;;;;;;;;;;5012460;28;20484;-77
2022/06/12 11:33:05;;;;;;;2.90;1.80;;;;;;;;;;5011966;28;20034;-78
2022/06/12 11:35:31;;;;;;;5.93;2.45;;;;;;;;;;5013011;28;20030;-77
2022/06/12 11:38:23;;;;;;;7.25;2.13;;;;;;;;;;5013248;28;20026;-78
2022/06/12 11:40:49;;;;;;;4.75;1.98;;;;;;;;;;5008803;28;20108;-78
2022/06/12 11:43:22;;;;;;;6.68;2.72;;;;;;;;;;5011903;28;20029;-77
2022/06/12 11:45:53;;;;;;;4.22;2.22;;;;;;;;;;5011320;28;20018;-78
2022/06/12 11:48:28;;;;;;;6.00;2.17;;;;;;;;;;5013753;28;20026;-76
2022/06/12 11:51:20;;;;;;;4.00;2.00;;;;;;;;;;5011836;28;20474;-77
2022/06/12 11:53:52;;;;;;;3.30;1.73;;;;;;;;;;5012239;28;20017;-76
2022/06/12 11:56:36;;;;;;;8.77;2.47;;;;;;;;;;5009879;28;20026;-77
2022/06/12 11:59:05;;;;;;;6.80;2.72;;;;;;;;;;5007250;28;20029;-78
2022/06/12 12:01:33;;;;;;;6.90;2.40;;;;;;;;;;5007622;28;20483;-77
2022/06/12 12:04:06;;;;;;;7.43;2.80;;;;;;;;;;5008722;28;20029;-77
2022/06/12 12:06:39;;;;;;;3.80;2.05;;;;;;;;;;5014635;28;20028;-77
2022/06/12 12:09:24;;;;;;;5.80;2.38;;;;;;;;;;5015293;28;20080;-76
2022/06/12 12:12:00;;;;;;;5.85;2.83;;;;;;;;;;5010868;28;20059;-77
2022/06/12 12:14:30;;;;;;;4.45;2.53;;;;;;;;;;5013463;28;20024;-78
2022/06/12 12:16:59;;;;;;;4.65;2.20;;;;;;;;;;5012433;28;20017;-79
2022/06/12 12:19:32;;;;;;;2.92;2.22;;;;;;;;;;5011036;28;20059;-78
2022/06/12 12:22:00;;;;;;;4.78;2.22;;;;;;;;;;5009390;28;20053;-78
2022/06/12 12:24:32;;;;;;;8.25;2.38;;;;;;;;;;5011355;28;20073;-77
2022/06/12 12:27:00;;;;;;;3.88;2.40;;;;;;;;;;5010902;28;20487;-77
2022/06/12 12:29:28;;;;;;;3.35;1.92;;;;;;;;;;5013280;28;20136;-77
2022/06/12 12:31:54;;;;;;;3.45;2.20;;;;;;;;;;5011282;28;20033;-77
2022/06/12 12:34:22;;;;;;;4.93;2.10;;;;;;;;;;5012482;28;20566;-77
2022/06/12 12:42:24;;;;;;;4.75;1.80;;;;;;;;;;5016473;28;20025;-75
2022/06/12 12:44:50;;;;;;;4.47;2.22;;;;;;;;;;5016876;28;20836;-75
2022/06/12 12:47:27;;;;;;;4.15;2.05;;;;;;;;;;5009038;28;20101;-76
2022/06/12 12:50:04;;;;;;;5.60;1.90;;;;;;;;;;5011437;28;20025;-75
2022/06/12 12:52:39;;;;;;;10.55;3.42;;;;;;;;;;5012734;28;20387;-75
2022/06/12 12:55:05;;;;;;;;;;;;;;;;;;5018505;28;20152;-75
2022/06/12 12:57:36;;;;;;;5.50;2.20;;;;;;;;;;5014094;28;19996;-76
2022/06/12 13:00:05;;;;;;;6.85;2.20;;;;;;;;;;5012934;28;21173;-76
2022/06/12 13:02:33;;;;;;;3.28;2.28;;;;;;;;;;5021249;28;20021;-77
2022/06/12 13:05:14;;;;;;;8.00;2.42;;;;;;;;;;5016622;28;20101;-75
2022/06/12 13:07:59;;;;;;;7.65;2.80;;;;;;;;;;5013922;28;20033;-77
2022/06/12 13:10:34;;;;;;;3.88;2.00;;;;;;;;;;5015935;28;20025;-76
2022/06/12 13:13:03;;;;;;;7.32;3.60;;;;;;;;;;5013498;28;20018;-76
2022/06/12 13:15:47;;;;;;;6.03;2.10;;;;;;;;;;5016121;28;20025;-75
2022/06/12 13:18:23;;;;;;;5.33;2.30;;;;;;;;;;5017073;28;20026;-76
2022/06/12 13:21:11;;;;;;;3.53;2.50;;;;;;;;;;5020494;28;20288;-75
2022/06/12 13:23:57;;;;;;;6.68;3.28;;;;;;;;;;5016425;28;20551;-76
2022/06/12 13:26:24;;;;;;;4.18;1.73;;;;;;;;;;5025825;28;20115;-75
2022/06/12 13:28:55;;;;;;;5.28;2.20;;;;;;;;;;5015237;28;20483;-76
2022/06/12 13:31:21;;;;;;;5.30;2.70;;;;;;;;;;5021149;28;20041;-76
2022/06/12 13:33:55;;;;;;;5.18;1.92;;;;;;;;;;5023745;28;20031;-75
2022/06/12 13:36:41;;;;;;;10.15;2.72;;;;;;;;;;5020479;28;20053;-76
2022/06/12 13:39:07;;;;;;;;;;;;;;;;;;5023218;28;20033;-76
2022/06/12 13:41:36;;;;;;;4.68;2.17;;;;;;;;;;5019800;28;19959;-76
2022/06/12 13:44:21;;;;;;;4.65;2.38;;;;;;;;;;5018037;28;20018;-76
2022/06/12 13:46:47;;;;;;;5.03;2.10;;;;;;;;;;5018955;28;20021;-76
2022/06/12 13:49:33;;;;;;;10.63;3.58;;;;;;;;;;5016108;28;20087;-76
2022/06/12 13:52:07;;;;;;;7.28;2.70;;;;;;;;;;5017854;28;20100;-75
2022/06/12 13:54:39;;;;;;;7.32;2.88;;;;;;;;;;5017046;28;20054;-76
2022/06/12 13:57:10;;;;;;;6.85;2.50;;;;;;;;;;5019779;28;20033;-76
2022/06/12 13:59:43;;;;;;;4.65;2.15;;;;;;;;;;5019342;28;20446;-75
2022/06/12 14:02:21;;;;;;;4.80;2.45;;;;;;;;;;5023120;28;20077;-75
2022/06/12 14:04:53;;;;;;;4.30;2.45;;;;;;;;;;5023142;28;20507;-76
2022/06/12 14:07:20;;;;;;;7.20;2.58;;;;;;;;;;5019799;28;20030;-75
2022/06/12 14:09:48;;;;;;;5.70;2.35;;;;;;;;;;5015771;28;20526;-76
2022/06/12 14:12:15;;;;;;;5.15;2.25;;;;;;;;;;5020849;28;20029;-76
2022/06/12 14:14:43;;;;;;;2.65;2.17;;;;;;;;;;5016402;28;20032;-75
2022/06/12 14:17:26;;;;;;;6.07;2.92;;;;;;;;;;5021071;28;20034;-75
2022/06/12 14:20:06;;;;;;;6.32;2.85;;;;;;;;;;5020532;28;20033;-76
2022/06/12 14:22:51;;;;;;;4.63;2.17;;;;;;;;;;5019662;28;20021;-76
2022/06/12 14:25:23;;;;;;;3.72;1.70;;;;;;;;;;5019377;28;20207;-76
2022/06/12 14:27:59;;;;;;;5.07;1.90;;;;;;;;;;5015153;28;20094;-76
2022/06/12 14:30:39;;;;;;;3.38;1.80;;;;;;;;;;5018502;28;20022;-75
2022/06/12 14:33:22;;;;;;;4.78;2.10;;;;;;;;;;5018298;28;20033;-75
2022/06/12 14:35:49;;;;;;;6.50;2.55;;;;;;;;;;5012909;28;20073;-76
2022/06/12 14:38:19;;;;;;;4.07;1.95;;;;;;;;;;5017934;28;20036;-75
2022/06/12 14:40:45;;;;;;;5.13;1.75;;;;;;;;;;5018995;28;20045;-74
2022/06/12 14:43:29;;;;;;;3.58;2.00;;;;;;;;;;5017614;28;20027;-75
2022/06/12 14:45:57;;;;;;;6.50;3.13;;;;;;;;;;5019255;28;20028;-75
2022/06/12 14:48:26;;;;;;;3.40;2.20;;;;;;;;;;5018438;28;20426;-76
2022/06/12 14:50:54;;;;;;;4.47;2.03;;;;;;;;;;5018135;28;20037;-75
2022/06/12 14:53:20;;;;;;;4.45;2.30;;;;;;;;;;5017852;28;20030;-76
2022/06/12 14:55:47;;;;;;;4.57;2.25;;;;;;;;;;5015821;28;20018;-75
2022/06/12 14:58:25;;;;;;;3.55;1.85;;;;;;;;;;5018768;28;20036;-75
2022/06/12 15:00:52;;;;;;;5.35;2.13;;;;;;;;;;5020675;28;20030;-76
2022/06/12 15:03:18;;;;;;;6.65;2.25;;;;;;;;;;5021431;28;20552;-75
2022/06/12 15:05:44;;;;;;;10.30;2.42;;;;;;;;;;5021446;28;20021;-75
2022/06/12 15:08:10;;;;;;;5.75;2.42;;;;;;;;;;5015247;28;20031;-76
2022/06/12 15:10:40;;;;;;;4.40;2.88;;;;;;;;;;5021253;28;20499;-74